sensor_id;sensor_type;location;lat;lon;timestamp;P1;durP1;ratioP1;P2;durP2;ratioP2
78781;SDS011;68126;55.748;48.742;2023-07-29T00:02:47;10.25;;;5.62;;
78781;SDS011;68126;55.748;48.742;2023-07-29T00:08:12;9.83;;;5.50;;
78781;SDS011;68126;55.748;48.742;2023-07-29T00:13:37;15.08;;;5.75;;
78781;SDS011;68126;55.748;48.742;2023-07-29T00:19:02;10.65;;;5.40;;
78781;SDS011;68126;55.748;48.742;2023-07-29T00:24:27;11.08;;;5.45;;
78781;SDS011;68126;55.748;48.742;2023-07-29T00:29:52;12.23;;;4.92;;
78781;SDS011;68126;55.748;48.742;2023-07-29T00:35:16;11.22;;;5.55;;
78781;SDS011;68126;55.748;48.742;2023-07-29T00:40:41;10.30;;;5.55;;
78781;SDS011;68126;55.748;48.742;2023-07-29T00:46:06;11.15;;;5.37;;
78781;SDS011;68126;55.748;48.742;2023-07-29T00:51:31;9.90;;;5.72;;
78781;SDS011;68126;55.748;48.742;2023-07-29T00:56:56;11.60;;;5.78;;
78781;SDS011;68126;55.748;48.742;2023-07-29T01:02:21;10.32;;;5.53;;
78781;SDS011;68126;55.748;48.742;2023-07-29T01:25:01;11.25;;;7.30;;
78781;SDS011;68126;55.748;48.742;2023-07-29T01:30:29;10.60;;;7.08;;
78781;SDS011;68126;55.748;48.742;2023-07-29T01:41:37;11.20;;;6.90;;
78781;SDS011;68126;55.748;48.742;2023-07-29T01:47:02;9.83;;;6.22;;
78781;SDS011;68126;55.748;48.742;2023-07-29T01:52:28;9.78;;;5.78;;
78781;SDS011;68126;55.748;48.742;2023-07-29T01:57:52;10.40;;;5.62;;
78781;SDS011;68126;55.748;48.742;2023-07-29T02:03:17;10.43;;;5.15;;
78781;SDS011;68126;55.748;48.742;2023-07-29T02:08:42;8.05;;;3.75;;
78781;SDS011;68126;55.748;48.742;2023-07-29T02:14:06;6.83;;;3.22;;
78781;SDS011;68126;55.748;48.742;2023-07-29T02:19:31;8.03;;;3.75;;
78781;SDS011;68126;55.748;48.742;2023-07-29T02:24:56;10.82;;;3.02;;
78781;SDS011;68126;55.748;48.742;2023-07-29T02:30:21;5.17;;;2.87;;
78781;SDS011;68126;55.748;48.742;2023-07-29T02:35:45;6.22;;;3.10;;
78781;SDS011;68126;55.748;48.742;2023-07-29T02:41:10;5.55;;;3.25;;
78781;SDS011;68126;55.748;48.742;2023-07-29T02:46:37;7.15;;;3.25;;
78781;SDS011;68126;55.748;48.742;2023-07-29T02:52:02;7.87;;;4.20;;
78781;SDS011;68126;55.748;48.742;2023-07-29T02:57:27;10.28;;;4.47;;
78781;SDS011;68126;55.748;48.742;2023-07-29T03:02:51;8.78;;;5.60;;
78781;SDS011;68126;55.748;48.742;2023-07-29T03:08:16;12.58;;;5.60;;
78781;SDS011;68126;55.748;48.742;2023-07-29T03:13:41;9.65;;;5.58;;
78781;SDS011;68126;55.748;48.742;2023-07-29T03:19:06;13.03;;;6.35;;
78781;SDS011;68126;55.748;48.742;2023-07-29T03:24:31;10.58;;;6.25;;
78781;SDS011;68126;55.748;48.742;2023-07-29T03:29:56;11.10;;;6.47;;
78781;SDS011;68126;55.748;48.742;2023-07-29T03:35:21;11.10;;;6.75;;
78781;SDS011;68126;55.748;48.742;2023-07-29T03:40:46;10.98;;;8.15;;
78781;SDS011;68126;55.748;48.742;2023-07-29T03:46:10;12.45;;;7.10;;
78781;SDS011;68126;55.748;48.742;2023-07-29T03:51:35;12.35;;;7.03;;
78781;SDS011;68126;55.748;48.742;2023-07-29T03:57:00;11.68;;;7.85;;
78781;SDS011;68126;55.748;48.742;2023-07-29T04:02:25;13.13;;;7.97;;
78781;SDS011;68126;55.748;48.742;2023-07-29T04:07:50;10.88;;;7.70;;
78781;SDS011;68126;55.748;48.742;2023-07-29T04:13:16;12.15;;;7.83;;
78781;SDS011;68126;55.748;48.742;2023-07-29T04:18:40;11.68;;;7.30;;
78781;SDS011;68126;55.748;48.742;2023-07-29T04:24:05;12.60;;;7.50;;
78781;SDS011;68126;55.748;48.742;2023-07-29T04:29:30;12.85;;;7.78;;
78781;SDS011;68126;55.748;48.742;2023-07-29T04:34:57;15.55;;;7.05;;
78781;SDS011;68126;55.748;48.742;2023-07-29T04:40:22;13.15;;;7.60;;
78781;SDS011;68126;55.748;48.742;2023-07-29T04:45:46;11.53;;;7.67;;
78781;SDS011;68126;55.748;48.742;2023-07-29T04:51:11;12.88;;;7.40;;
78781;SDS011;68126;55.748;48.742;2023-07-29T04:56:36;13.48;;;7.83;;
78781;SDS011;68126;55.748;48.742;2023-07-29T05:02:01;13.60;;;7.53;;
78781;SDS011;68126;55.748;48.742;2023-07-29T05:07:26;12.00;;;7.10;;
78781;SDS011;68126;55.748;48.742;2023-07-29T05:12:50;9.90;;;7.80;;
78781;SDS011;68126;55.748;48.742;2023-07-29T05:18:15;11.03;;;7.35;;
78781;SDS011;68126;55.748;48.742;2023-07-29T05:23:40;13.65;;;7.25;;
78781;SDS011;68126;55.748;48.742;2023-07-29T05:29:05;13.15;;;7.40;;
78781;SDS011;68126;55.748;48.742;2023-07-29T05:34:29;13.32;;;7.28;;
78781;SDS011;68126;55.748;48.742;2023-07-29T05:39:54;15.30;;;7.85;;
78781;SDS011;68126;55.748;48.742;2023-07-29T05:45:19;14.38;;;7.97;;
78781;SDS011;68126;55.748;48.742;2023-07-29T05:50:44;15.48;;;7.97;;
78781;SDS011;68126;55.748;48.742;2023-07-29T05:56:09;12.43;;;9.15;;
78781;SDS011;68126;55.748;48.742;2023-07-29T06:01:33;12.05;;;7.78;;
78781;SDS011;68126;55.748;48.742;2023-07-29T06:06:58;12.03;;;8.10;;
78781;SDS011;68126;55.748;48.742;2023-07-29T06:12:23;16.70;;;8.43;;
78781;SDS011;68126;55.748;48.742;2023-07-29T06:17:47;13.15;;;7.50;;
78781;SDS011;68126;55.748;48.742;2023-07-29T06:23:12;13.55;;;7.85;;
78781;SDS011;68126;55.748;48.742;2023-07-29T06:29:09;15.70;;;7.35;;
78781;SDS011;68126;55.748;48.742;2023-07-29T06:34:08;14.00;;;9.03;;
78781;SDS011;68126;55.748;48.742;2023-07-29T06:39:32;11.70;;;7.28;;
78781;SDS011;68126;55.748;48.742;2023-07-29T06:50:44;14.83;;;7.80;;
78781;SDS011;68126;55.748;48.742;2023-07-29T06:56:09;13.38;;;7.53;;
78781;SDS011;68126;55.748;48.742;2023-07-29T07:01:34;10.23;;;7.60;;
78781;SDS011;68126;55.748;48.742;2023-07-29T07:06:59;11.08;;;7.97;;
78781;SDS011;68126;55.748;48.742;2023-07-29T07:12:23;10.20;;;7.62;;
78781;SDS011;68126;55.748;48.742;2023-07-29T07:17:48;12.07;;;7.50;;
78781;SDS011;68126;55.748;48.742;2023-07-29T07:23:13;13.32;;;8.25;;
78781;SDS011;68126;55.748;48.742;2023-07-29T07:28:38;13.35;;;7.58;;
78781;SDS011;68126;55.748;48.742;2023-07-29T07:34:02;13.30;;;8.00;;
78781;SDS011;68126;55.748;48.742;2023-07-29T07:39:27;11.45;;;7.22;;
78781;SDS011;68126;55.748;48.742;2023-07-29T07:44:52;14.70;;;7.75;;
78781;SDS011;68126;55.748;48.742;2023-07-29T07:50:17;12.80;;;7.08;;
78781;SDS011;68126;55.748;48.742;2023-07-29T07:55:42;13.22;;;7.47;;
78781;SDS011;68126;55.748;48.742;2023-07-29T08:01:06;17.37;;;8.13;;
78781;SDS011;68126;55.748;48.742;2023-07-29T08:06:32;10.50;;;7.42;;
78781;SDS011;68126;55.748;48.742;2023-07-29T08:11:57;15.40;;;8.00;;
78781;SDS011;68126;55.748;48.742;2023-07-29T08:17:22;14.45;;;7.33;;
78781;SDS011;68126;55.748;48.742;2023-07-29T08:28:11;13.13;;;7.50;;
78781;SDS011;68126;55.748;48.742;2023-07-29T08:38:59;12.82;;;6.20;;
78781;SDS011;68126;55.748;48.742;2023-07-29T08:44:26;19.30;;;7.87;;
78781;SDS011;68126;55.748;48.742;2023-07-29T08:49:53;14.23;;;6.92;;
78781;SDS011;68126;55.748;48.742;2023-07-29T08:55:18;13.78;;;7.83;;
78781;SDS011;68126;55.748;48.742;2023-07-29T09:00:43;12.33;;;7.12;;
78781;SDS011;68126;55.748;48.742;2023-07-29T09:06:08;14.03;;;7.45;;
78781;SDS011;68126;55.748;48.742;2023-07-29T09:11:33;13.22;;;7.60;;
78781;SDS011;68126;55.748;48.742;2023-07-29T09:16:58;13.32;;;7.85;;
78781;SDS011;68126;55.748;48.742;2023-07-29T09:22:23;15.18;;;8.05;;
78781;SDS011;68126;55.748;48.742;2023-07-29T09:27:48;13.98;;;7.67;;
78781;SDS011;68126;55.748;48.742;2023-07-29T09:33:13;14.73;;;6.70;;
78781;SDS011;68126;55.748;48.742;2023-07-29T09:38:38;11.03;;;6.58;;
78781;SDS011;68126;55.748;48.742;2023-07-29T09:44:03;8.68;;;6.05;;
78781;SDS011;68126;55.748;48.742;2023-07-29T09:49:28;13.08;;;6.50;;
78781;SDS011;68126;55.748;48.742;2023-07-29T09:54:53;14.00;;;6.47;;
78781;SDS011;68126;55.748;48.742;2023-07-29T10:00:19;13.88;;;7.47;;
78781;SDS011;68126;55.748;48.742;2023-07-29T10:11:10;12.63;;;6.10;;
78781;SDS011;68126;55.748;48.742;2023-07-29T10:22:20;10.43;;;5.30;;
78781;SDS011;68126;55.748;48.742;2023-07-29T10:33:31;13.13;;;5.87;;
78781;SDS011;68126;55.748;48.742;2023-07-29T10:38:56;8.70;;;5.17;;
78781;SDS011;68126;55.748;48.742;2023-07-29T10:44:54;11.60;;;6.37;;
78781;SDS011;68126;55.748;48.742;2023-07-29T10:49:49;8.88;;;5.28;;
78781;SDS011;68126;55.748;48.742;2023-07-29T10:55:45;9.65;;;4.97;;
78781;SDS011;68126;55.748;48.742;2023-07-29T11:06:25;12.30;;;5.15;;
78781;SDS011;68126;55.748;48.742;2023-07-29T11:11:50;11.33;;;4.50;;
78781;SDS011;68126;55.748;48.742;2023-07-29T11:17:15;9.55;;;4.62;;
78781;SDS011;68126;55.748;48.742;2023-07-29T11:22:40;10.32;;;4.95;;
78781;SDS011;68126;55.748;48.742;2023-07-29T11:28:05;7.75;;;4.78;;
78781;SDS011;68126;55.748;48.742;2023-07-29T11:33:30;15.43;;;4.47;;
78781;SDS011;68126;55.748;48.742;2023-07-29T11:38:55;11.22;;;5.53;;
78781;SDS011;68126;55.748;48.742;2023-07-29T11:44:20;9.58;;;4.70;;
78781;SDS011;68126;55.748;48.742;2023-07-29T11:49:44;11.68;;;5.10;;
78781;SDS011;68126;55.748;48.742;2023-07-29T11:55:09;6.95;;;4.45;;
78781;SDS011;68126;55.748;48.742;2023-07-29T12:00:34;7.00;;;4.55;;
78781;SDS011;68126;55.748;48.742;2023-07-29T12:05:58;9.68;;;4.25;;
78781;SDS011;68126;55.748;48.742;2023-07-29T12:11:23;9.28;;;4.87;;
78781;SDS011;68126;55.748;48.742;2023-07-29T12:16:48;10.75;;;6.17;;
78781;SDS011;68126;55.748;48.742;2023-07-29T12:22:18;10.13;;;4.97;;
78781;SDS011;68126;55.748;48.742;2023-07-29T12:27:43;11.78;;;5.47;;
78781;SDS011;68126;55.748;48.742;2023-07-29T12:33:08;15.75;;;5.00;;
78781;SDS011;68126;55.748;48.742;2023-07-29T12:38:32;10.82;;;5.22;;
78781;SDS011;68126;55.748;48.742;2023-07-29T12:49:21;11.55;;;5.15;;
78781;SDS011;68126;55.748;48.742;2023-07-29T12:54:46;10.65;;;5.60;;
78781;SDS011;68126;55.748;48.742;2023-07-29T13:00:11;17.23;;;6.78;;
78781;SDS011;68126;55.748;48.742;2023-07-29T13:05:36;9.90;;;5.42;;
78781;SDS011;68126;55.748;48.742;2023-07-29T13:11:01;17.77;;;5.62;;
78781;SDS011;68126;55.748;48.742;2023-07-29T13:16:27;10.60;;;4.87;;
78781;SDS011;68126;55.748;48.742;2023-07-29T13:21:51;12.13;;;5.33;;
78781;SDS011;68126;55.748;48.742;2023-07-29T13:27:16;11.00;;;4.92;;
78781;SDS011;68126;55.748;48.742;2023-07-29T13:32:41;11.15;;;4.78;;
78781;SDS011;68126;55.748;48.742;2023-07-29T13:38:06;8.28;;;4.58;;
78781;SDS011;68126;55.748;48.742;2023-07-29T13:48:57;12.33;;;5.47;;
78781;SDS011;68126;55.748;48.742;2023-07-29T13:54:22;9.05;;;4.58;;
78781;SDS011;68126;55.748;48.742;2023-07-29T13:59:46;15.55;;;4.85;;
78781;SDS011;68126;55.748;48.742;2023-07-29T14:05:11;7.83;;;4.92;;
78781;SDS011;68126;55.748;48.742;2023-07-29T14:10:36;12.23;;;5.22;;
78781;SDS011;68126;55.748;48.742;2023-07-29T14:16:01;10.23;;;5.35;;
78781;SDS011;68126;55.748;48.742;2023-07-29T14:21:26;13.40;;;5.92;;
78781;SDS011;68126;55.748;48.742;2023-07-29T14:26:51;13.00;;;6.25;;
78781;SDS011;68126;55.748;48.742;2023-07-29T14:32:16;15.88;;;6.87;;
78781;SDS011;68126;55.748;48.742;2023-07-29T14:37:40;14.18;;;6.72;;
78781;SDS011;68126;55.748;48.742;2023-07-29T14:43:05;12.73;;;6.85;;
78781;SDS011;68126;55.748;48.742;2023-07-29T14:48:30;13.32;;;6.20;;
78781;SDS011;68126;55.748;48.742;2023-07-29T14:53:55;12.47;;;5.53;;
78781;SDS011;68126;55.748;48.742;2023-07-29T14:59:19;10.48;;;5.53;;
78781;SDS011;68126;55.748;48.742;2023-07-29T15:04:44;14.33;;;5.60;;
78781;SDS011;68126;55.748;48.742;2023-07-29T15:10:09;22.58;;;4.67;;
78781;SDS011;68126;55.748;48.742;2023-07-29T15:20:58;24.45;;;4.60;;
78781;SDS011;68126;55.748;48.742;2023-07-29T15:26:24;13.65;;;3.95;;
78781;SDS011;68126;55.748;48.742;2023-07-29T15:31:49;9.43;;;3.47;;
78781;SDS011;68126;55.748;48.742;2023-07-29T15:37:14;7.85;;;3.40;;
78781;SDS011;68126;55.748;48.742;2023-07-29T15:42:39;5.90;;;2.90;;
78781;SDS011;68126;55.748;48.742;2023-07-29T15:48:03;5.42;;;3.62;;
78781;SDS011;68126;55.748;48.742;2023-07-29T15:53:28;4.53;;;2.00;;
78781;SDS011;68126;55.748;48.742;2023-07-29T15:58:53;3.22;;;1.45;;
78781;SDS011;68126;55.748;48.742;2023-07-29T16:04:17;5.37;;;1.42;;
78781;SDS011;68126;55.748;48.742;2023-07-29T16:09:42;4.90;;;2.02;;
78781;SDS011;68126;55.748;48.742;2023-07-29T16:15:07;6.20;;;1.50;;
78781;SDS011;68126;55.748;48.742;2023-07-29T16:20:32;3.67;;;2.42;;
78781;SDS011;68126;55.748;48.742;2023-07-29T16:25:57;3.20;;;1.90;;
78781;SDS011;68126;55.748;48.742;2023-07-29T16:31:22;6.50;;;2.12;;
78781;SDS011;68126;55.748;48.742;2023-07-29T16:36:47;4.78;;;2.00;;
78781;SDS011;68126;55.748;48.742;2023-07-29T16:42:12;5.28;;;1.77;;
78781;SDS011;68126;55.748;48.742;2023-07-29T16:47:36;4.40;;;1.92;;
78781;SDS011;68126;55.748;48.742;2023-07-29T16:53:01;5.95;;;2.22;;
78781;SDS011;68126;55.748;48.742;2023-07-29T16:58:26;5.80;;;1.72;;
78781;SDS011;68126;55.748;48.742;2023-07-29T17:03:50;5.78;;;1.62;;
78781;SDS011;68126;55.748;48.742;2023-07-29T17:09:15;3.37;;;1.17;;
78781;SDS011;68126;55.748;48.742;2023-07-29T17:14:40;6.75;;;1.52;;
78781;SDS011;68126;55.748;48.742;2023-07-29T17:20:05;6.35;;;2.08;;
78781;SDS011;68126;55.748;48.742;2023-07-29T17:30:57;5.70;;;3.10;;
78781;SDS011;68126;55.748;48.742;2023-07-29T17:36:22;4.50;;;3.02;;
78781;SDS011;68126;55.748;48.742;2023-07-29T17:41:46;4.47;;;1.98;;
78781;SDS011;68126;55.748;48.742;2023-07-29T17:47:11;6.40;;;2.87;;
78781;SDS011;68126;55.748;48.742;2023-07-29T17:52:56;6.03;;;3.27;;
78781;SDS011;68126;55.748;48.742;2023-07-29T17:58:21;5.67;;;3.00;;
78781;SDS011;68126;55.748;48.742;2023-07-29T18:03:46;7.25;;;3.50;;
78781;SDS011;68126;55.748;48.742;2023-07-29T18:09:10;4.58;;;2.60;;
78781;SDS011;68126;55.748;48.742;2023-07-29T18:14:36;6.33;;;3.60;;
78781;SDS011;68126;55.748;48.742;2023-07-29T18:20:01;7.87;;;3.05;;
78781;SDS011;68126;55.748;48.742;2023-07-29T18:25:28;7.70;;;3.15;;
78781;SDS011;68126;55.748;48.742;2023-07-29T18:30:53;6.60;;;3.12;;
78781;SDS011;68126;55.748;48.742;2023-07-29T18:36:19;3.90;;;2.87;;
78781;SDS011;68126;55.748;48.742;2023-07-29T18:41:45;4.50;;;2.58;;
78781;SDS011;68126;55.748;48.742;2023-07-29T18:52:38;7.08;;;2.33;;
78781;SDS011;68126;55.748;48.742;2023-07-29T18:58:03;7.22;;;2.72;;
78781;SDS011;68126;55.748;48.742;2023-07-29T19:03:28;6.15;;;3.10;;
78781;SDS011;68126;55.748;48.742;2023-07-29T19:08:53;4.85;;;2.47;;
78781;SDS011;68126;55.748;48.742;2023-07-29T19:14:18;5.92;;;2.87;;
78781;SDS011;68126;55.748;48.742;2023-07-29T19:19:43;5.55;;;3.50;;
78781;SDS011;68126;55.748;48.742;2023-07-29T19:25:07;6.87;;;2.52;;
78781;SDS011;68126;55.748;48.742;2023-07-29T19:30:33;7.95;;;3.58;;
78781;SDS011;68126;55.748;48.742;2023-07-29T19:35:58;10.70;;;2.98;;
78781;SDS011;68126;55.748;48.742;2023-07-29T19:41:22;5.90;;;2.95;;
78781;SDS011;68126;55.748;48.742;2023-07-29T19:46:49;8.60;;;3.08;;
78781;SDS011;68126;55.748;48.742;2023-07-29T19:52:14;7.35;;;3.85;;
78781;SDS011;68126;55.748;48.742;2023-07-29T19:57:40;5.80;;;2.92;;
78781;SDS011;68126;55.748;48.742;2023-07-29T20:03:05;6.53;;;2.70;;
78781;SDS011;68126;55.748;48.742;2023-07-29T20:08:30;7.08;;;3.10;;
78781;SDS011;68126;55.748;48.742;2023-07-29T20:13:55;9.10;;;3.02;;
78781;SDS011;68126;55.748;48.742;2023-07-29T20:19:21;5.92;;;3.62;;
78781;SDS011;68126;55.748;48.742;2023-07-29T20:24:46;6.47;;;3.27;;
78781;SDS011;68126;55.748;48.742;2023-07-29T20:30:11;7.22;;;3.50;;
78781;SDS011;68126;55.748;48.742;2023-07-29T20:35:36;8.08;;;3.30;;
78781;SDS011;68126;55.748;48.742;2023-07-29T20:41:01;8.95;;;4.15;;
78781;SDS011;68126;55.748;48.742;2023-07-29T20:46:25;8.98;;;3.25;;
78781;SDS011;68126;55.748;48.742;2023-07-29T20:51:50;11.83;;;3.80;;
78781;SDS011;68126;55.748;48.742;2023-07-29T20:57:15;6.55;;;3.12;;
78781;SDS011;68126;55.748;48.742;2023-07-29T21:02:40;6.60;;;2.80;;
78781;SDS011;68126;55.748;48.742;2023-07-29T21:08:04;7.53;;;2.70;;
78781;SDS011;68126;55.748;48.742;2023-07-29T21:13:29;6.33;;;2.95;;
78781;SDS011;68126;55.748;48.742;2023-07-29T21:18:54;6.78;;;3.22;;
78781;SDS011;68126;55.748;48.742;2023-07-29T21:24:19;5.78;;;3.25;;
78781;SDS011;68126;55.748;48.742;2023-07-29T21:29:44;6.67;;;3.17;;
78781;SDS011;68126;55.748;48.742;2023-07-29T21:35:10;6.80;;;3.90;;
78781;SDS011;68126;55.748;48.742;2023-07-29T21:41:11;6.87;;;3.37;;
78781;SDS011;68126;55.748;48.742;2023-07-29T21:46:04;6.80;;;3.40;;
78781;SDS011;68126;55.748;48.742;2023-07-29T21:51:30;7.40;;;3.17;;
78781;SDS011;68126;55.748;48.742;2023-07-29T21:56:54;6.47;;;2.72;;
78781;SDS011;68126;55.748;48.742;2023-07-29T22:02:19;7.78;;;3.35;;
78781;SDS011;68126;55.748;48.742;2023-07-29T22:07:44;8.15;;;2.95;;
78781;SDS011;68126;55.748;48.742;2023-07-29T22:13:09;7.22;;;2.67;;
78781;SDS011;68126;55.748;48.742;2023-07-29T22:18:34;4.25;;;3.15;;
78781;SDS011;68126;55.748;48.742;2023-07-29T22:23:59;6.28;;;2.95;;
78781;SDS011;68126;55.748;48.742;2023-07-29T22:29:23;6.05;;;2.80;;
78781;SDS011;68126;55.748;48.742;2023-07-29T22:34:48;5.83;;;3.05;;
78781;SDS011;68126;55.748;48.742;2023-07-29T22:40:13;7.35;;;3.33;;
78781;SDS011;68126;55.748;48.742;2023-07-29T22:45:39;7.30;;;3.35;;
78781;SDS011;68126;55.748;48.742;2023-07-29T22:51:04;5.03;;;2.52;;
78781;SDS011;68126;55.748;48.742;2023-07-29T22:56:29;5.67;;;3.10;;
78781;SDS011;68126;55.748;48.742;2023-07-29T23:07:21;7.40;;;3.25;;
78781;SDS011;68126;55.748;48.742;2023-07-29T23:12:45;8.23;;;3.65;;
78781;SDS011;68126;55.748;48.742;2023-07-29T23:18:10;8.48;;;3.25;;
78781;SDS011;68126;55.748;48.742;2023-07-29T23:23:35;7.30;;;3.60;;
78781;SDS011;68126;55.748;48.742;2023-07-29T23:29:00;6.17;;;3.02;;
78781;SDS011;68126;55.748;48.742;2023-07-29T23:34:25;9.18;;;3.50;;
78781;SDS011;68126;55.748;48.742;2023-07-29T23:39:50;7.58;;;3.90;;
78781;SDS011;68126;55.748;48.742;2023-07-29T23:45:15;8.25;;;3.58;;
78781;SDS011;68126;55.748;48.742;2023-07-29T23:50:39;9.40;;;3.20;;
78781;SDS011;68126;55.748;48.742;2023-07-29T23:56:04;10.82;;;3.58;;
